createdAt,value
2019-04-28T00:02:05.250Z,10.60
2019-04-28T00:04:33.478Z,10.47
2019-04-28T00:07:01.896Z,10.45
2019-04-28T00:09:31.355Z,10.41
2019-04-28T00:12:05.723Z,10.35
2019-04-28T00:14:33.943Z,10.44
2019-04-28T00:17:02.220Z,10.30
2019-04-28T00:19:31.066Z,10.34
2019-04-28T00:22:06.467Z,10.37
2019-04-28T00:24:42.025Z,10.38
2019-04-28T00:27:11.645Z,10.29
2019-04-28T00:29:45.376Z,10.16
2019-04-28T00:32:13.351Z,10.03
2019-04-28T00:34:41.629Z,9.95
2019-04-28T00:37:11.473Z,10.08
2019-04-28T00:39:40.986Z,10.11
2019-04-28T00:42:09.281Z,10.00
2019-04-28T00:44:37.518Z,10.11
2019-04-28T00:47:05.732Z,9.91
2019-04-28T00:49:48.995Z,9.84
2019-04-28T00:52:18.635Z,9.90
2019-04-28T00:54:47.078Z,9.97
2019-04-28T00:57:15.475Z,9.88
2019-04-28T00:59:56.826Z,9.91
2019-04-28T01:02:17.975Z,9.84
2019-04-28T01:04:46.174Z,9.86
2019-04-28T01:07:14.388Z,9.83
2019-04-28T01:09:42.621Z,9.91
2019-04-28T01:12:11.251Z,9.87
2019-04-28T01:14:40.898Z,9.89
2019-04-28T01:17:11.025Z,10.08
2019-04-28T01:19:53.101Z,10.20
2019-04-28T01:22:21.303Z,10.28
2019-04-28T01:24:49.772Z,10.09
2019-04-28T01:27:41.143Z,10.09
2019-04-28T01:30:11.361Z,10.01
2019-04-28T01:32:43.983Z,9.95
2019-04-28T01:35:12.184Z,9.81
2019-04-28T01:37:41.585Z,9.84
2019-04-28T01:40:09.796Z,9.90
2019-04-28T01:42:38.011Z,9.87
2019-04-28T01:45:06.891Z,9.81
2019-04-28T01:47:35.095Z,9.73
2019-04-28T01:50:03.303Z,9.59
2019-04-28T01:52:31.523Z,9.60
2019-04-28T01:55:00.437Z,9.52
2019-04-28T01:57:29.928Z,9.53
2019-04-28T01:59:59.806Z,9.49
2019-04-28T02:02:30.007Z,9.59
2019-04-28T02:05:04.441Z,9.63
2019-04-28T02:07:32.912Z,9.84
2019-04-28T02:10:01.231Z,9.78
2019-04-28T02:12:30.372Z,9.66
2019-04-28T02:15:00.978Z,9.63
2019-04-28T02:17:30.458Z,9.70
2019-04-28T02:20:00.528Z,9.73
2019-04-28T02:22:33.503Z,9.60
2019-04-28T02:25:09.982Z,9.56
2019-04-28T02:27:40.088Z,9.65
2019-04-28T02:30:11.338Z,9.56
2019-04-28T02:32:40.723Z,9.65
2019-04-28T02:35:10.796Z,9.56
2019-04-28T02:37:40.536Z,9.52
2019-04-28T02:40:10.621Z,9.57
2019-04-28T02:42:40.961Z,9.47
2019-04-28T02:45:11.335Z,9.36
2019-04-28T02:47:41.652Z,9.35
2019-04-28T02:50:25.452Z,9.37
2019-04-28T02:52:55.307Z,9.54
2019-04-28T02:55:26.498Z,9.75
2019-04-28T02:57:54.742Z,9.73
2019-04-28T03:00:22.955Z,9.61
2019-04-28T03:02:51.546Z,9.49
2019-04-28T03:05:21.557Z,9.44
2019-04-28T03:07:51.437Z,9.47
2019-04-28T03:10:21.445Z,9.32
2019-04-28T03:12:51.698Z,9.33
2019-04-28T03:15:21.607Z,9.33
2019-04-28T03:17:52.559Z,9.45
2019-04-28T03:20:21.082Z,9.48
2019-04-28T03:22:51.012Z,9.40
2019-04-28T03:25:21.173Z,9.44
2019-04-28T03:28:07.474Z,9.43
2019-04-28T03:30:55.445Z,9.44
2019-04-28T03:33:26.532Z,9.33
2019-04-28T03:35:54.978Z,9.24
2019-04-28T03:38:23.204Z,9.26
2019-04-28T03:40:51.500Z,9.23
2019-04-28T03:43:21.196Z,9.31
2019-04-28T03:45:56.811Z,9.28
2019-04-28T03:48:25.053Z,9.29
2019-04-28T03:50:53.252Z,9.18
2019-04-28T03:53:24.773Z,9.29
2019-04-28T03:55:52.973Z,9.22
2019-04-28T03:58:24.181Z,9.06
2019-04-28T04:00:53.559Z,9.02
2019-04-28T04:03:21.757Z,8.96
2019-04-28T04:05:50.746Z,8.98
2019-04-28T04:08:20.927Z,8.91
2019-04-28T04:10:51.092Z,8.93
2019-04-28T04:16:30.766Z,8.86
2019-04-28T04:19:00.862Z,8.97
2019-04-28T04:21:30.982Z,8.93
2019-04-28T04:24:01.115Z,8.87
2019-04-28T04:26:31.083Z,8.93
2019-04-28T04:29:00.890Z,8.99
2019-04-28T04:31:31.709Z,9.04
2019-04-28T04:34:03.031Z,9.13
2019-04-28T04:36:31.148Z,9.23
2019-04-28T04:39:01.889Z,9.37
2019-04-28T04:41:30.538Z,9.41
2019-04-28T04:44:01.216Z,9.27
2019-04-28T04:46:31.127Z,9.24
2019-04-28T04:49:00.679Z,9.33
2019-04-28T04:51:30.615Z,9.42
2019-04-28T04:54:01.134Z,9.44
2019-04-28T04:56:30.218Z,9.48
2019-04-28T04:59:02.120Z,9.43
2019-04-28T05:01:30.467Z,9.40
2019-04-28T05:04:15.385Z,9.48
2019-04-28T05:06:43.595Z,9.44
2019-04-28T05:09:11.802Z,9.49
2019-04-28T05:11:40.352Z,9.54
2019-04-28T05:14:11.575Z,9.44
2019-04-28T05:16:39.818Z,9.17
2019-04-28T05:19:10.199Z,9.32
2019-04-28T05:21:40.116Z,9.33
2019-04-28T05:24:30.232Z,9.40
2019-04-28T05:26:59.550Z,9.27
2019-04-28T05:29:30.437Z,9.23
2019-04-28T05:32:00.992Z,9.27
2019-04-28T05:34:29.645Z,9.20
2019-04-28T05:36:58.027Z,9.10
2019-04-28T05:39:26.238Z,9.21
2019-04-28T05:41:54.450Z,9.28
2019-04-28T05:44:22.687Z,9.25
2019-04-28T05:46:50.924Z,9.18
2019-04-28T05:49:20.771Z,9.19
2019-04-28T05:51:50.684Z,9.19
2019-04-28T05:54:20.565Z,9.25
2019-04-28T05:57:02.557Z,9.03
2019-04-28T05:59:42.743Z,8.86
2019-04-28T06:02:30.818Z,9.03
2019-04-28T06:04:59.947Z,8.84
2019-04-28T06:07:30.481Z,8.77
2019-04-28T06:10:00.153Z,8.91
2019-04-28T06:12:30.244Z,8.86
2019-04-28T06:15:00.135Z,8.96
2019-04-28T06:17:29.517Z,8.84
2019-04-28T06:19:57.824Z,8.95
2019-04-28T06:22:26.018Z,9.02
2019-04-28T06:24:54.241Z,9.08
2019-04-28T06:27:22.437Z,9.25
2019-04-28T06:29:50.645Z,9.22
2019-04-28T06:32:18.848Z,9.30
2019-04-28T06:34:47.058Z,9.46
2019-04-28T06:37:15.258Z,9.56
2019-04-28T06:39:43.461Z,9.60
2019-04-28T06:42:11.665Z,9.67
2019-04-28T06:44:39.936Z,9.80
2019-04-28T06:47:08.136Z,9.99
2019-04-28T06:49:36.359Z,9.84
2019-04-28T06:52:04.562Z,9.88
2019-04-28T06:54:32.789Z,9.98
2019-04-28T06:57:01.033Z,10.02
2019-04-28T06:59:29.277Z,9.79
2019-04-28T07:01:57.494Z,9.61
2019-04-28T07:04:25.692Z,9.66
2019-04-28T07:06:53.920Z,9.67
2019-04-28T07:09:22.198Z,9.53
2019-04-28T07:11:50.528Z,9.53
2019-04-28T07:14:18.755Z,9.76
2019-04-28T07:16:46.944Z,9.73
2019-04-28T07:19:27.141Z,9.74
2019-04-28T07:22:06.094Z,9.80
2019-04-28T07:24:34.339Z,9.78
2019-04-28T07:27:02.569Z,9.89
2019-04-28T07:29:30.792Z,9.98
2019-04-28T07:31:59.192Z,10.05
2019-04-28T07:34:27.430Z,10.13
2019-04-28T07:36:55.663Z,10.01
2019-04-28T07:39:23.883Z,9.75
2019-04-28T07:41:52.098Z,9.92
2019-04-28T07:44:20.315Z,10.08
2019-04-28T07:46:48.547Z,10.31
2019-04-28T07:49:16.863Z,10.50
2019-04-28T07:51:52.529Z,10.46
2019-04-28T07:54:21.941Z,10.43
2019-04-28T07:56:53.414Z,10.38
2019-04-28T07:59:21.622Z,10.32
2019-04-28T08:01:50.568Z,10.31
2019-04-28T08:04:18.868Z,10.35
2019-04-28T08:06:47.108Z,10.40
2019-04-28T08:09:16.955Z,10.45
2019-04-28T08:11:45.191Z,10.57
2019-04-28T08:14:13.549Z,10.71
2019-04-28T08:16:41.736Z,10.86
2019-04-28T08:19:09.938Z,10.97
2019-04-28T08:21:38.183Z,11.02
2019-04-28T08:24:06.883Z,10.86
2019-04-28T08:26:36.333Z,10.66
2019-04-28T08:29:04.687Z,10.41
2019-04-28T08:31:37.213Z,10.39
2019-04-28T08:34:07.085Z,10.46
2019-04-28T08:36:35.306Z,10.58
2019-04-28T08:39:05.222Z,10.96
2019-04-28T08:41:33.434Z,10.96
2019-04-28T08:44:01.677Z,11.19
2019-04-28T08:46:29.880Z,11.51
2019-04-28T08:48:58.124Z,11.70
2019-04-28T08:51:26.327Z,11.83
2019-04-28T08:53:54.554Z,11.72
2019-04-28T08:56:22.764Z,12.00
2019-04-28T08:58:50.995Z,11.79
2019-04-28T09:01:19.250Z,11.93
2019-04-28T09:03:47.421Z,11.88
2019-04-28T09:06:15.642Z,11.68
2019-04-28T09:08:43.875Z,11.62
2019-04-28T09:11:12.075Z,11.19
2019-04-28T09:13:40.303Z,11.02
2019-04-28T09:16:08.521Z,10.88
2019-04-28T09:18:37.598Z,10.94
2019-04-28T09:21:05.827Z,11.00
2019-04-28T09:23:34.104Z,11.18
2019-04-28T09:26:02.263Z,11.14
2019-04-28T09:28:33.444Z,11.27
2019-04-28T09:31:01.666Z,11.60
2019-04-28T09:33:29.895Z,12.14
2019-04-28T09:35:58.113Z,12.37
2019-04-28T09:38:26.316Z,12.71
2019-04-28T09:40:54.542Z,12.91
2019-04-28T09:43:24.532Z,13.15
2019-04-28T09:46:00.589Z,13.69
2019-04-28T09:48:31.848Z,13.65
2019-04-28T09:51:00.078Z,13.30
2019-04-28T09:53:28.281Z,13.64
2019-04-28T09:55:56.493Z,13.79
2019-04-28T09:58:24.724Z,13.37
2019-04-28T10:00:52.949Z,13.46
2019-04-28T10:03:21.154Z,13.31
2019-04-28T10:05:49.396Z,13.06
2019-04-28T10:08:17.613Z,12.96
2019-04-28T10:10:45.843Z,12.84
2019-04-28T10:13:14.074Z,13.01
2019-04-28T10:15:42.308Z,13.20
2019-04-28T10:18:10.523Z,12.94
2019-04-28T10:20:38.736Z,12.71
2019-04-28T10:23:06.985Z,12.67
2019-04-28T10:25:35.220Z,12.97
2019-04-28T10:28:03.417Z,13.26
2019-04-28T10:30:31.640Z,13.01
2019-04-28T10:32:59.909Z,12.81
2019-04-28T10:35:28.175Z,12.30
2019-04-28T10:37:56.386Z,12.39
2019-04-28T10:40:37.326Z,12.47
2019-04-28T10:43:05.631Z,12.63
2019-04-28T10:45:35.544Z,12.30
2019-04-28T10:48:05.108Z,12.33
2019-04-28T10:50:33.317Z,12.48
2019-04-28T10:53:01.576Z,12.82
2019-04-28T10:55:29.795Z,12.51
2019-04-28T10:57:58.001Z,12.63
2019-04-28T11:00:27.843Z,12.58
2019-04-28T11:02:56.063Z,12.63
2019-04-28T11:05:28.574Z,12.65
2019-04-28T11:07:56.810Z,12.72
2019-04-28T11:10:25.033Z,13.00
2019-04-28T11:12:53.234Z,13.10
2019-04-28T11:15:28.867Z,13.12
2019-04-28T11:17:58.717Z,13.45
2019-04-28T11:20:26.941Z,13.65
2019-04-28T11:22:55.177Z,13.93
2019-04-28T11:25:23.382Z,14.68
2019-04-28T11:27:51.640Z,14.83
2019-04-28T11:30:20.586Z,15.05
2019-04-28T11:32:50.446Z,14.77
2019-04-28T11:35:23.517Z,14.85
2019-04-28T11:37:51.773Z,16.48
2019-04-28T11:40:19.995Z,18.12
2019-04-28T11:42:48.221Z,18.79
2019-04-28T11:45:16.505Z,19.06
2019-04-28T11:47:44.727Z,17.80
2019-04-28T11:50:12.932Z,15.35
2019-04-28T11:52:41.134Z,14.46
2019-04-28T11:55:09.427Z,13.88
2019-04-28T11:57:37.666Z,13.57
2019-04-28T12:00:08.070Z,13.46
2019-04-28T12:02:36.294Z,13.81
2019-04-28T12:05:05.730Z,14.43
2019-04-28T12:07:33.943Z,15.25
2019-04-28T12:10:06.710Z,15.17
2019-04-28T12:12:48.621Z,15.96
2019-04-28T12:15:48.980Z,15.77
2019-04-28T12:18:27.770Z,14.82
2019-04-28T12:20:56.005Z,14.52
2019-04-28T12:23:24.196Z,14.16
2019-04-28T12:25:53.443Z,13.84
2019-04-28T12:28:21.655Z,13.52
2019-04-28T12:30:49.900Z,13.28
2019-04-28T12:33:18.116Z,13.54
2019-04-28T12:35:48.020Z,13.84
2019-04-28T12:38:16.286Z,13.86
2019-04-28T12:40:44.514Z,13.77
2019-04-28T12:43:12.736Z,13.55
2019-04-28T12:45:40.981Z,13.68
2019-04-28T12:48:09.274Z,13.65
2019-04-28T12:50:45.203Z,13.59
2019-04-28T12:53:13.389Z,13.40
2019-04-28T12:55:41.629Z,13.26
2019-04-28T12:58:09.833Z,13.32
2019-04-28T13:00:45.786Z,13.54
2019-04-28T13:03:24.271Z,14.56
2019-04-28T13:06:03.776Z,16.13
2019-04-28T13:08:26.753Z,17.69
2019-04-28T13:10:54.980Z,18.48
2019-04-28T13:13:23.174Z,18.71
2019-04-28T13:15:51.482Z,18.71
2019-04-28T13:18:19.680Z,19.20
2019-04-28T13:20:47.896Z,18.76
2019-04-28T13:23:16.112Z,18.42
2019-04-28T13:25:44.324Z,17.24
2019-04-28T13:28:12.595Z,16.50
2019-04-28T13:30:40.788Z,16.41
2019-04-28T13:33:09.019Z,16.18
2019-04-28T13:35:37.240Z,16.58
2019-04-28T13:38:05.471Z,16.66
2019-04-28T13:40:38.232Z,16.70
2019-04-28T13:43:06.466Z,16.46
2019-04-28T13:45:37.556Z,16.51
2019-04-28T13:48:05.872Z,17.23
2019-04-28T13:50:35.990Z,17.54
2019-04-28T13:53:04.837Z,18.03
2019-04-28T13:56:00.067Z,17.78
2019-04-28T13:58:29.315Z,17.52
2019-04-28T14:00:59.189Z,17.51
2019-04-28T14:03:41.398Z,17.74
2019-04-28T14:06:11.233Z,17.66
2019-04-28T14:08:39.502Z,16.65
2019-04-28T14:11:07.702Z,16.59
2019-04-28T14:13:35.938Z,16.65
2019-04-28T14:16:04.213Z,16.07
2019-04-28T14:18:32.455Z,16.44
2019-04-28T14:21:00.668Z,16.66
2019-04-28T14:23:28.886Z,15.77
2019-04-28T14:25:57.104Z,15.88
2019-04-28T14:28:25.310Z,15.54
2019-04-28T14:30:53.535Z,15.45
2019-04-28T14:33:21.755Z,15.30
2019-04-28T14:35:49.962Z,15.49
2019-04-28T14:38:18.201Z,15.59
2019-04-28T14:40:46.488Z,15.71
2019-04-28T14:43:14.704Z,15.20
2019-04-28T14:45:42.950Z,15.23
2019-04-28T14:48:11.129Z,15.16
2019-04-28T14:50:39.356Z,15.21
2019-04-28T14:53:08.838Z,15.70
2019-04-28T14:55:37.169Z,15.86
2019-04-28T14:58:05.374Z,15.84
2019-04-28T15:00:35.377Z,15.95
2019-04-28T15:03:05.258Z,16.84
2019-04-28T15:05:44.136Z,16.39
2019-04-28T15:08:16.679Z,16.11
2019-04-28T15:10:55.371Z,15.56
2019-04-28T15:13:25.235Z,15.47
2019-04-28T15:15:53.462Z,15.73
2019-04-28T15:18:21.687Z,16.03
2019-04-28T15:20:49.870Z,16.20
2019-04-28T15:23:18.078Z,16.38
2019-04-28T15:25:46.313Z,16.60
2019-04-28T15:28:14.527Z,16.63
2019-04-28T15:30:42.825Z,16.63
2019-04-28T15:33:11.253Z,17.33
2019-04-28T15:35:39.541Z,17.51
2019-04-28T15:38:10.535Z,17.04
2019-04-28T15:40:38.783Z,16.82
2019-04-28T15:43:07.001Z,17.06
2019-04-28T15:45:35.209Z,16.88
2019-04-28T15:48:03.588Z,17.12
2019-04-28T15:50:31.773Z,17.60
2019-04-28T15:52:59.992Z,17.64
2019-04-28T15:55:29.840Z,17.71
2019-04-28T15:57:58.071Z,17.78
2019-04-28T16:00:26.295Z,17.70
2019-04-28T16:02:54.568Z,17.59
2019-04-28T16:05:22.826Z,17.73
2019-04-28T16:07:51.127Z,17.48
2019-04-28T16:10:19.334Z,17.40
2019-04-28T16:12:53.138Z,17.36
2019-04-28T16:15:21.404Z,17.39
2019-04-28T16:17:49.612Z,17.70
2019-04-28T16:20:19.465Z,17.69
2019-04-28T16:22:47.693Z,17.71
2019-04-28T16:25:15.911Z,17.74
2019-04-28T16:27:44.175Z,17.41
2019-04-28T16:30:12.379Z,17.02
2019-04-28T16:32:40.603Z,16.85
2019-04-28T16:35:08.839Z,16.68
2019-04-28T16:37:39.061Z,16.36
2019-04-28T16:40:09.518Z,16.29
2019-04-28T16:42:36.925Z,16.14
2019-04-28T16:45:06.009Z,16.11
2019-04-28T16:47:34.236Z,16.00
2019-04-28T16:50:02.457Z,15.94
2019-04-28T16:52:30.666Z,15.72
2019-04-28T16:55:15.541Z,15.64
2019-04-28T16:57:44.756Z,15.60
2019-04-28T17:00:30.788Z,15.49
2019-04-28T17:02:59.198Z,15.53
2019-04-28T17:05:27.452Z,15.18
2019-04-28T17:07:55.852Z,15.28
2019-04-28T17:11:16.087Z,15.30
2019-04-28T17:13:44.326Z,15.19
2019-04-28T17:16:12.616Z,15.08
2019-04-28T17:18:42.543Z,15.15
2019-04-28T17:21:10.756Z,15.25
2019-04-28T17:23:39.030Z,15.27
2019-04-28T17:26:07.362Z,15.37
2019-04-28T17:28:35.638Z,15.35
2019-04-28T17:31:03.862Z,15.34
2019-04-28T17:33:33.846Z,15.41
2019-04-28T17:36:01.988Z,15.29
2019-04-28T17:38:30.246Z,14.51
2019-04-28T17:40:58.470Z,14.92
2019-04-28T17:43:26.682Z,14.94
2019-04-28T17:45:54.989Z,14.98
2019-04-28T17:48:27.819Z,15.05
2019-04-28T17:50:56.026Z,15.12
2019-04-28T17:53:24.234Z,15.06
2019-04-28T17:55:52.491Z,14.95
2019-04-28T17:58:21.089Z,14.73
2019-04-28T18:00:56.761Z,14.83
2019-04-28T18:03:32.292Z,14.86
2019-04-28T18:06:18.060Z,14.83
2019-04-28T18:08:45.545Z,14.71
2019-04-28T18:11:14.049Z,14.48
2019-04-28T18:13:42.260Z,14.39
2019-04-28T18:16:16.460Z,14.38
2019-04-28T18:18:52.027Z,14.46
2019-04-28T18:21:20.255Z,14.46
2019-04-28T18:23:48.461Z,14.30
2019-04-28T18:26:16.714Z,14.12
2019-04-28T18:28:44.941Z,14.02
2019-04-28T18:31:14.848Z,14.10
2019-04-28T18:34:02.273Z,14.14
2019-04-28T18:36:32.280Z,14.17
2019-04-28T18:39:02.131Z,14.19
2019-04-28T18:41:37.816Z,14.09
2019-04-28T18:44:19.883Z,13.92
2019-04-28T18:46:48.095Z,13.82
2019-04-28T18:49:16.297Z,13.78
2019-04-28T18:51:44.514Z,13.80
2019-04-28T18:54:13.743Z,13.85
2019-04-28T18:56:41.961Z,13.85
2019-04-28T18:59:10.177Z,13.82
2019-04-28T19:01:40.034Z,13.63
2019-04-28T19:04:08.307Z,13.66
2019-04-28T19:06:36.591Z,13.57
2019-04-28T19:09:13.851Z,13.56
2019-04-28T19:11:45.390Z,13.47
2019-04-28T19:14:22.324Z,13.42
2019-04-28T19:17:07.498Z,13.30
2019-04-28T19:19:37.357Z,13.23
2019-04-28T19:22:05.559Z,13.18
2019-04-28T19:24:39.707Z,13.11
2019-04-28T19:27:07.915Z,13.04
2019-04-28T19:29:37.812Z,12.95
2019-04-28T19:32:06.028Z,12.60
2019-04-28T19:34:38.667Z,12.31
2019-04-28T19:37:04.173Z,12.35
2019-04-28T19:39:32.397Z,12.44
2019-04-28T19:42:00.624Z,12.50
2019-04-28T19:44:28.857Z,12.40
2019-04-28T19:46:58.427Z,12.44
2019-04-28T19:49:26.651Z,12.48
2019-04-28T19:51:57.053Z,12.51
2019-04-28T19:54:26.898Z,12.50
2019-04-28T19:57:02.954Z,12.48
2019-04-28T19:59:35.825Z,12.38
2019-04-28T20:02:04.076Z,12.29
2019-04-28T20:04:32.296Z,12.20
2019-04-28T20:07:00.507Z,12.19
2019-04-28T20:09:28.729Z,12.16
2019-04-28T20:11:56.951Z,12.10
2019-04-28T20:14:25.168Z,12.07
2019-04-28T20:16:53.406Z,12.03
2019-04-28T20:19:21.641Z,11.95
2019-04-28T20:21:49.831Z,11.90
2019-04-28T20:24:19.605Z,11.81
2019-04-28T20:26:48.025Z,11.71
2019-04-28T20:29:19.566Z,11.62
2019-04-28T20:31:47.766Z,11.52
2019-04-28T20:34:16.014Z,11.40
2019-04-28T20:36:51.535Z,11.36
2019-04-28T20:39:27.391Z,11.23
2019-04-28T20:41:57.386Z,11.24
2019-04-28T20:44:25.682Z,11.26
2019-04-28T20:46:53.902Z,11.19
2019-04-28T20:49:23.146Z,11.13
2019-04-28T20:51:51.463Z,11.15
2019-04-28T20:54:19.693Z,11.18
2019-04-28T20:56:47.914Z,11.13
2019-04-28T20:59:16.123Z,11.09
2019-04-28T21:01:44.348Z,10.87
2019-04-28T21:04:12.552Z,10.80
2019-04-28T21:06:40.776Z,10.51
2019-04-28T21:09:09.713Z,10.92
2019-04-28T21:11:38.983Z,10.93
2019-04-28T21:14:07.221Z,10.76
2019-04-28T21:16:35.436Z,10.50
2019-04-28T21:19:03.654Z,10.44
2019-04-28T21:21:31.880Z,10.26
2019-04-28T21:24:00.069Z,10.23
2019-04-28T21:26:28.293Z,10.19
2019-04-28T21:28:56.487Z,10.04
2019-04-28T21:31:24.724Z,10.19
2019-04-28T21:33:52.939Z,10.32
2019-04-28T21:36:22.875Z,10.39
2019-04-28T21:38:51.157Z,10.42
2019-04-28T21:41:19.375Z,10.36
2019-04-28T21:43:49.227Z,10.29
2019-04-28T21:46:22.014Z,9.56
2019-04-28T21:48:54.964Z,10.15
2019-04-28T21:51:23.183Z,10.11
2019-04-28T21:53:52.981Z,10.21
2019-04-28T21:56:27.436Z,10.27
2019-04-28T21:58:55.165Z,10.24
2019-04-28T22:01:23.312Z,10.20
2019-04-28T22:03:52.012Z,10.09
2019-04-28T22:06:20.202Z,9.88
2019-04-28T22:08:48.427Z,9.80
2019-04-28T22:11:16.645Z,9.89
2019-04-28T22:13:44.860Z,9.79
2019-04-28T22:16:13.097Z,9.44
2019-04-28T22:18:41.298Z,9.14
2019-04-28T22:21:09.578Z,8.88
2019-04-28T22:23:55.647Z,8.71
2019-04-28T22:26:41.377Z,8.88
2019-04-28T22:29:09.612Z,9.19
2019-04-28T22:31:37.816Z,9.41
2019-04-28T22:34:06.034Z,9.52
2019-04-28T22:36:34.229Z,9.48
2019-04-28T22:39:02.441Z,9.47
2019-04-28T22:41:30.700Z,9.29
2019-04-28T22:43:58.887Z,9.25
2019-04-28T22:46:27.084Z,9.21
2019-04-28T22:48:56.963Z,9.28
2019-04-28T22:51:25.231Z,9.22
2019-04-28T22:53:53.437Z,9.40
2019-04-28T22:56:23.266Z,9.40
2019-04-28T22:58:53.141Z,9.44
2019-04-28T23:01:39.376Z,9.36
2019-04-28T23:04:12.036Z,9.28
2019-04-28T23:06:40.235Z,9.25
2019-04-28T23:09:10.095Z,9.16
2019-04-28T23:11:38.299Z,9.10
2019-04-28T23:14:06.574Z,9.05
2019-04-28T23:16:34.747Z,8.98
2019-04-28T23:19:04.605Z,9.01
2019-04-28T23:21:34.452Z,8.93
2019-04-28T23:24:02.661Z,9.00
2019-04-28T23:26:30.867Z,8.98
2019-04-28T23:28:59.093Z,8.97
2019-04-28T23:31:27.299Z,8.86
2019-04-28T23:33:55.603Z,8.69
2019-04-28T23:36:23.819Z,8.66
2019-04-28T23:38:52.023Z,8.70
2019-04-28T23:41:31.011Z,8.72
2019-04-28T23:43:59.206Z,8.58
2019-04-28T23:46:46.402Z,8.47
2019-04-28T23:49:14.598Z,8.32
2019-04-28T23:51:44.463Z,8.07
2019-04-28T23:54:12.660Z,8.07
2019-04-28T23:56:44.213Z,8.22
2019-04-28T23:59:12.439Z,8.30
